createdAt,value
2024-04-24T00:03:50.112Z,7.10
2024-04-24T00:08:52.517Z,7.10
2024-04-24T00:13:54.677Z,7.30
2024-04-24T00:18:56.887Z,7.10
2024-04-24T00:23:58.999Z,7.10
2024-04-24T00:29:01.128Z,7.10
2024-04-24T00:34:03.250Z,7.10
2024-04-24T00:39:05.415Z,7.10
2024-04-24T00:44:08.569Z,7.10
2024-04-24T00:49:11.956Z,7.10
2024-04-24T00:54:14.620Z,7.00
2024-04-24T00:59:17.504Z,7.10
2024-04-24T01:04:19.753Z,6.70
2024-04-24T01:09:22.324Z,7.20
2024-04-24T01:14:24.375Z,7.00
2024-04-24T01:19:47.705Z,7.00
2024-04-24T01:24:59.281Z,7.00
2024-04-24T01:30:01.419Z,7.00
2024-04-24T01:35:03.673Z,7.00
2024-04-24T01:40:06.240Z,6.90
2024-04-24T01:45:08.777Z,7.00
2024-04-24T01:50:10.872Z,6.90
2024-04-24T01:55:13.028Z,7.00
2024-04-24T02:00:15.155Z,7.00
2024-04-24T02:05:17.328Z,6.90
2024-04-24T02:10:19.919Z,6.90
2024-04-24T02:15:21.976Z,6.80
2024-04-24T02:20:24.147Z,6.90
2024-04-24T02:25:35.598Z,6.80
2024-04-24T02:30:37.818Z,6.80
2024-04-24T02:35:39.860Z,6.80
2024-04-24T02:40:41.904Z,6.70
2024-04-24T02:45:44.076Z,6.80
2024-04-24T02:50:46.262Z,6.80
2024-04-24T02:55:48.421Z,6.70
2024-04-24T03:00:50.487Z,6.70
2024-04-24T03:05:52.553Z,6.70
2024-04-24T03:10:54.994Z,6.70
2024-04-24T03:15:57.049Z,6.60
2024-04-24T03:20:59.096Z,6.60
2024-04-24T03:26:01.190Z,7.00
2024-04-24T03:31:03.295Z,6.50
2024-04-24T03:36:05.451Z,6.40
2024-04-24T03:41:07.480Z,6.40
2024-04-24T03:46:09.595Z,6.30
2024-04-24T03:51:11.607Z,6.30
2024-04-24T03:56:13.665Z,6.30
2024-04-24T04:01:17.861Z,6.30
2024-04-24T04:06:19.888Z,6.20
2024-04-24T04:11:22.226Z,6.20
2024-04-24T04:16:24.275Z,6.20
2024-04-24T04:21:26.297Z,6.10
2024-04-24T04:26:28.465Z,6.10
2024-04-24T04:31:30.539Z,6.10
2024-04-24T04:36:32.572Z,6.00
2024-04-24T04:41:34.628Z,6.00
2024-04-24T04:46:36.870Z,6.10
2024-04-24T04:51:38.874Z,6.00
2024-04-24T04:56:41.011Z,6.00
2024-04-24T05:01:43.687Z,6.00
2024-04-24T05:06:45.713Z,6.10
2024-04-24T05:11:53.113Z,6.00
2024-04-24T05:16:55.336Z,6.00
2024-04-24T05:21:57.429Z,6.10
2024-04-24T05:27:17.972Z,6.10
2024-04-24T05:32:20.061Z,6.10
2024-04-24T05:37:22.124Z,6.10
2024-04-24T05:42:24.825Z,6.30
2024-04-24T05:47:27.017Z,6.10
2024-04-24T05:52:29.081Z,6.20
2024-04-24T05:57:31.177Z,6.20
2024-04-24T06:02:38.836Z,6.20
2024-04-24T06:07:42.721Z,6.20
2024-04-24T06:12:44.820Z,6.30
2024-04-24T06:17:46.930Z,6.20
2024-04-24T06:22:49.213Z,6.30
2024-04-24T06:27:51.418Z,6.40
2024-04-24T06:32:53.625Z,6.40
2024-04-24T06:37:55.795Z,6.40
2024-04-24T06:42:57.971Z,6.40
2024-04-24T06:48:00.173Z,6.40
2024-04-24T06:53:02.307Z,6.40
2024-04-24T06:58:04.644Z,6.50
2024-04-24T07:03:06.857Z,6.50
2024-04-24T07:08:09.338Z,6.60
2024-04-24T07:13:11.901Z,6.60
2024-04-24T07:18:14.631Z,6.70
2024-04-24T07:23:17.953Z,6.70
2024-04-24T07:28:20.070Z,6.70
2024-04-24T07:33:22.310Z,6.80
2024-04-24T07:38:24.442Z,6.70
2024-04-24T07:43:26.955Z,6.50
2024-04-24T07:48:29.238Z,6.80
2024-04-24T07:53:32.790Z,6.80
2024-04-24T07:58:36.714Z,6.90
2024-04-24T08:03:38.990Z,6.90
2024-04-24T08:08:41.302Z,7.00
2024-04-24T08:13:43.659Z,7.00
2024-04-24T08:18:50.113Z,7.10
2024-04-24T08:23:52.303Z,7.40
2024-04-24T08:28:54.424Z,7.40
2024-04-24T08:33:56.590Z,7.40
2024-04-24T08:39:01.758Z,7.50
2024-04-24T08:44:04.865Z,7.50
2024-04-24T08:49:07.949Z,7.50
2024-04-24T08:54:15.843Z,7.40
2024-04-24T08:59:23.911Z,7.70
2024-04-24T09:04:26.490Z,7.80
2024-04-24T09:09:28.957Z,7.80
2024-04-24T09:14:32.952Z,7.70
2024-04-24T09:19:35.047Z,7.70
2024-04-24T09:24:38.044Z,7.70
2024-04-24T09:29:40.117Z,7.80
2024-04-24T09:34:43.210Z,7.80
2024-04-24T09:39:45.413Z,7.90
2024-04-24T09:44:48.237Z,7.80
2024-04-24T09:49:51.831Z,7.70
2024-04-24T09:54:53.970Z,7.50
2024-04-24T09:59:58.936Z,7.50
2024-04-24T10:05:33.130Z,7.50
2024-04-24T10:10:43.299Z,7.40
2024-04-24T10:15:47.853Z,7.50
2024-04-24T10:20:50.955Z,7.50
2024-04-24T10:25:53.291Z,7.50
2024-04-24T10:30:57.917Z,7.60
2024-04-24T10:36:01.506Z,7.60
2024-04-24T10:41:04.591Z,7.70
2024-04-24T10:46:07.304Z,7.80
2024-04-24T10:51:09.473Z,7.90
2024-04-24T10:56:18.021Z,8.10
2024-04-24T11:01:22.120Z,8.20
2024-04-24T11:06:26.270Z,8.20
2024-04-24T11:11:28.902Z,8.30
2024-04-24T11:16:34.109Z,8.30
2024-04-24T11:21:36.238Z,8.30
2024-04-24T11:26:38.440Z,8.60
2024-04-24T11:31:42.880Z,8.60
2024-04-24T11:36:46.763Z,8.80
2024-04-24T11:41:50.589Z,8.90
2024-04-24T11:46:52.841Z,8.90
2024-04-24T11:51:55.883Z,8.90
2024-04-24T11:57:01.618Z,8.90
2024-04-24T12:02:03.977Z,8.90
2024-04-24T12:07:06.393Z,8.80
2024-04-24T12:12:08.895Z,8.80
2024-04-24T12:17:11.316Z,9.10
2024-04-24T12:22:13.867Z,9.50
2024-04-24T12:27:16.578Z,9.40
2024-04-24T12:32:19.377Z,9.40
2024-04-24T12:37:21.599Z,9.40
2024-04-24T12:42:24.754Z,9.30
2024-04-24T12:47:27.741Z,9.40
2024-04-24T12:52:30.148Z,9.50
2024-04-24T12:57:32.286Z,9.40
2024-04-24T13:02:39.309Z,9.50
2024-04-24T13:07:41.682Z,9.50
2024-04-24T13:12:43.737Z,9.60
2024-04-24T13:17:46.379Z,9.60
2024-04-24T13:22:50.512Z,9.50
2024-04-24T13:27:52.562Z,10.00
2024-04-24T13:32:54.793Z,9.70
2024-04-24T13:37:56.942Z,9.70
2024-04-24T13:42:59.003Z,9.80
2024-04-24T13:48:01.268Z,9.70
2024-04-24T13:53:03.940Z,9.80
2024-04-24T13:58:06.157Z,9.80
2024-04-24T14:03:08.352Z,9.90
2024-04-24T14:08:10.527Z,10.00
2024-04-24T14:13:12.615Z,10.00
2024-04-24T14:18:16.065Z,10.10
2024-04-24T14:23:18.244Z,10.00
2024-04-24T14:28:20.496Z,10.00
2024-04-24T14:33:22.662Z,10.10
2024-04-24T14:38:24.951Z,10.10
2024-04-24T14:43:27.181Z,10.10
2024-04-24T14:48:29.394Z,10.20
2024-04-24T14:53:31.793Z,10.20
2024-04-24T14:58:34.499Z,10.10
2024-04-24T15:03:37.313Z,10.00
2024-04-24T15:08:39.491Z,9.90
2024-04-24T15:13:43.384Z,9.80
2024-04-24T15:18:46.332Z,9.90
2024-04-24T15:23:49.858Z,10.10
2024-04-24T15:28:51.928Z,10.30
2024-04-24T15:33:54.707Z,10.40
2024-04-24T15:38:57.394Z,10.50
2024-04-24T15:43:59.455Z,10.50
2024-04-24T15:49:01.557Z,10.40
2024-04-24T15:54:03.942Z,10.30
2024-04-24T15:59:06.044Z,10.10
2024-04-24T16:04:08.152Z,10.10
2024-04-24T16:09:10.930Z,10.00
2024-04-24T16:14:16.499Z,9.80
2024-04-24T16:19:20.423Z,9.70
2024-04-24T16:24:22.720Z,9.60
2024-04-24T16:29:28.420Z,9.60
2024-04-24T16:34:31.333Z,9.50
2024-04-24T16:39:33.446Z,9.40
2024-04-24T16:44:38.084Z,9.30
2024-04-24T16:49:40.671Z,9.10
2024-04-24T16:54:42.869Z,9.10
2024-04-24T16:59:44.941Z,8.90
2024-04-24T17:04:47.011Z,8.80
2024-04-24T17:09:49.159Z,8.80
2024-04-24T17:14:51.248Z,8.70
2024-04-24T17:19:55.087Z,8.60
2024-04-24T17:24:57.205Z,8.60
2024-04-24T17:29:59.361Z,8.50
2024-04-24T17:35:01.751Z,8.60
2024-04-24T17:40:04.353Z,8.30
2024-04-24T17:45:08.054Z,8.00
2024-04-24T17:50:10.659Z,7.80
2024-04-24T17:55:14.218Z,7.70
2024-04-24T18:00:16.354Z,7.60
2024-04-24T18:05:19.638Z,7.50
2024-04-24T18:10:22.689Z,7.40
2024-04-24T18:15:25.010Z,7.30
2024-04-24T18:20:27.163Z,7.20
2024-04-24T18:25:29.554Z,7.10
2024-04-24T18:30:31.814Z,7.00
2024-04-24T18:35:34.163Z,6.90
2024-04-24T18:40:36.356Z,6.90
2024-04-24T18:45:38.497Z,6.80
2024-04-24T18:50:40.586Z,6.70
2024-04-24T18:55:42.808Z,6.70
2024-04-24T19:00:44.853Z,6.80
2024-04-24T19:05:49.045Z,6.80
2024-04-24T19:10:51.350Z,6.80
2024-04-24T19:15:53.647Z,6.70
2024-04-24T19:20:56.252Z,6.60
2024-04-24T19:25:58.402Z,6.50
2024-04-24T19:31:00.777Z,6.40
2024-04-24T19:36:03.095Z,6.30
2024-04-24T19:41:05.373Z,6.30
2024-04-24T19:46:08.293Z,6.20
2024-04-24T19:51:11.931Z,6.20
2024-04-24T19:56:14.131Z,6.20
2024-04-24T20:01:16.708Z,6.10
2024-04-24T20:06:19.468Z,6.10
2024-04-24T20:11:21.698Z,6.20
2024-04-24T20:16:23.871Z,6.10
2024-04-24T20:21:28.075Z,6.10
2024-04-24T20:26:30.158Z,6.10
2024-04-24T20:31:32.430Z,6.10
2024-04-24T20:36:34.602Z,6.00
2024-04-24T20:41:38.207Z,6.00
2024-04-24T20:46:42.060Z,6.00
2024-04-24T20:51:44.204Z,6.00
2024-04-24T20:56:46.431Z,5.90
2024-04-24T21:01:48.570Z,5.90
2024-04-24T21:06:50.671Z,5.90
2024-04-24T21:11:53.458Z,5.90
2024-04-24T21:16:55.553Z,5.80
2024-04-24T21:21:58.215Z,5.80
2024-04-24T21:27:00.376Z,5.80
2024-04-24T21:32:03.951Z,5.80
2024-04-24T21:37:06.580Z,5.80
2024-04-24T21:42:08.765Z,5.80
2024-04-24T21:47:12.181Z,5.80
2024-04-24T21:52:14.326Z,5.80
2024-04-24T21:57:16.491Z,5.80
2024-04-24T22:02:18.581Z,5.80
2024-04-24T22:07:20.975Z,5.70
2024-04-24T22:12:23.090Z,5.70
2024-04-24T22:17:28.155Z,5.70
2024-04-24T22:22:32.132Z,5.70
2024-04-24T22:27:35.256Z,5.70
2024-04-24T22:32:37.499Z,5.60
2024-04-24T22:37:39.634Z,5.60
2024-04-24T22:42:42.752Z,5.50
2024-04-24T22:47:45.109Z,5.50
2024-04-24T22:52:47.345Z,5.40
2024-04-24T22:57:49.477Z,5.40
2024-04-24T23:02:51.906Z,5.30
2024-04-24T23:07:54.033Z,5.30
2024-04-24T23:12:56.051Z,5.30
2024-04-24T23:17:58.214Z,5.20
2024-04-24T23:23:02.206Z,5.20
2024-04-24T23:28:04.608Z,5.30
2024-04-24T23:33:06.826Z,5.20
2024-04-24T23:38:09.133Z,5.20
2024-04-24T23:43:11.218Z,5.20
2024-04-24T23:48:13.351Z,5.10
2024-04-24T23:53:15.522Z,5.20
2024-04-24T23:58:17.683Z,5.20
